WAT33 KLAX-NZAA
Flight info
| Callsign | WAT33 |
|---|---|
| Flight time | N/A |
| Altitude | 30000 |
| Route | SUMMR2 FICKY B577 BELAN/N0509F320 B577 QUIGG/N0502F340 B577 TUT B575 OGELA/N0493F360 B575 ELPAK |
| Aircraft | B77W/H-SDE1E2E3FGHIJ2J3J4J5M1RWXY/LB1D1 |
Departure
| Time | 2026-05-04 03:33 |
|---|---|
| Airport | Los Angeles International Airport (KLAX) |
Arrival
| Time | N/A |
|---|---|
| Airport | Auckland International Airport (NZAA) |
| Time | Latitude | Longitude | Altitude | Speed | Heading |
|---|---|---|---|---|---|
| 2026-05-04 02:29 | 33.94259 | -118.41136 | 130 ft | 0 kts | 85° |
| 2026-05-04 03:12 | 33.94259 | -118.41142 | 130 ft | 2 kts | 87° |
| 2026-05-04 03:13 | 33.94259 | -118.41162 | 125 ft | 2 kts | 94° |
| 2026-05-04 03:13 | 33.94261 | -118.41182 | 128 ft | 2 kts | 104° |
| 2026-05-04 03:13 | 33.94267 | -118.41200 | 125 ft | 2 kts | 122° |
| 2026-05-04 03:13 | 33.94278 | -118.41215 | 125 ft | 2 kts | 148° |
| 2026-05-04 03:14 | 33.94293 | -118.41223 | 127 ft | 2 kts | 169° |
| 2026-05-04 03:14 | 33.94303 | -118.41225 | 125 ft | 1 kts | 174° |
| 2026-05-04 03:14 | 33.94304 | -118.41226 | 125 ft | 0 kts | 174° |
| 2026-05-04 03:19 | 33.94301 | -118.41225 | 125 ft | 1 kts | 174° |
| 2026-05-04 03:19 | 33.94289 | -118.41224 | 125 ft | 2 kts | 174° |
| 2026-05-04 03:19 | 33.94271 | -118.41222 | 125 ft | 2 kts | 174° |
| 2026-05-04 03:19 | 33.94230 | -118.41216 | 126 ft | 13 kts | 173° |
| 2026-05-04 03:20 | 33.94135 | -118.41203 | 128 ft | 14 kts | 173° |
| 2026-05-04 03:20 | 33.94041 | -118.41188 | 125 ft | 14 kts | 173° |
| 2026-05-04 03:20 | 33.93947 | -118.41175 | 127 ft | 14 kts | 173° |
| 2026-05-04 03:20 | 33.93895 | -118.41167 | 127 ft | 0 kts | 173° |
| 2026-05-04 03:21 | 33.93892 | -118.41167 | 127 ft | 2 kts | 173° |
| 2026-05-04 03:21 | 33.93825 | -118.41159 | 128 ft | 14 kts | 173° |
| 2026-05-04 03:21 | 33.93767 | -118.41086 | 126 ft | 7 kts | 89° |
| 2026-05-04 03:22 | 33.93774 | -118.41024 | 130 ft | 8 kts | 83° |
| 2026-05-04 03:22 | 33.93782 | -118.40942 | 127 ft | 13 kts | 83° |
| 2026-05-04 03:22 | 33.93797 | -118.40796 | 125 ft | 22 kts | 83° |
| 2026-05-04 03:22 | 33.93817 | -118.40594 | 129 ft | 25 kts | 83° |
| 2026-05-04 03:23 | 33.93837 | -118.40392 | 126 ft | 22 kts | 83° |
| 2026-05-04 03:23 | 33.93855 | -118.40239 | 126 ft | 18 kts | 82° |
| 2026-05-04 03:23 | 33.93869 | -118.40087 | 126 ft | 18 kts | 83° |
| 2026-05-04 03:23 | 33.93882 | -118.39948 | 126 ft | 16 kts | 83° |
| 2026-05-04 03:24 | 33.93895 | -118.39817 | 126 ft | 16 kts | 83° |
| 2026-05-04 03:24 | 33.93909 | -118.39685 | 129 ft | 16 kts | 82° |
| 2026-05-04 03:24 | 33.93924 | -118.39554 | 127 ft | 16 kts | 82° |
| 2026-05-04 03:24 | 33.93937 | -118.39422 | 127 ft | 16 kts | 83° |
| 2026-05-04 03:25 | 33.93951 | -118.39290 | 127 ft | 16 kts | 83° |
| 2026-05-04 03:25 | 33.93964 | -118.39158 | 127 ft | 16 kts | 83° |
| 2026-05-04 03:25 | 33.93978 | -118.39027 | 130 ft | 16 kts | 83° |
| 2026-05-04 03:25 | 33.93990 | -118.38895 | 130 ft | 16 kts | 84° |
| 2026-05-04 03:26 | 33.94003 | -118.38763 | 127 ft | 16 kts | 83° |
| 2026-05-04 03:26 | 33.94018 | -118.38639 | 127 ft | 9 kts | 82° |
| 2026-05-04 03:26 | 33.94021 | -118.38613 | 130 ft | 3 kts | 83° |
| 2026-05-04 03:26 | 33.94023 | -118.38590 | 128 ft | 3 kts | 83° |
| 2026-05-04 03:27 | 33.94026 | -118.38563 | 126 ft | 5 kts | 82° |
| 2026-05-04 03:27 | 33.94032 | -118.38509 | 128 ft | 7 kts | 82° |
| 2026-05-04 03:27 | 33.94037 | -118.38450 | 127 ft | 9 kts | 83° |
| 2026-05-04 03:27 | 33.94049 | -118.38332 | 129 ft | 13 kts | 83° |
| 2026-05-04 03:28 | 33.94053 | -118.38289 | 126 ft | 0 kts | 83° |
| 2026-05-04 03:28 | 33.94054 | -118.38280 | 126 ft | 7 kts | 83° |
| 2026-05-04 03:28 | 33.94064 | -118.38185 | 130 ft | 12 kts | 83° |
| 2026-05-04 03:28 | 33.94070 | -118.38122 | 127 ft | 3 kts | 84° |
| 2026-05-04 03:29 | 33.94070 | -118.38117 | 128 ft | 0 kts | 84° |
| 2026-05-04 03:29 | 33.94071 | -118.38112 | 129 ft | 1 kts | 83° |
| 2026-05-04 03:29 | 33.94072 | -118.38101 | 130 ft | 1 kts | 82° |
| 2026-05-04 03:30 | 33.94073 | -118.38089 | 130 ft | 1 kts | 82° |
| 2026-05-04 03:30 | 33.94075 | -118.38077 | 130 ft | 2 kts | 83° |
| 2026-05-04 03:30 | 33.94070 | -118.38035 | 128 ft | 11 kts | 114° |
| 2026-05-04 03:30 | 33.94002 | -118.38009 | 127 ft | 10 kts | 201° |
| 2026-05-04 03:31 | 33.93984 | -118.38042 | 125 ft | 0 kts | 264° |
| 2026-05-04 03:32 | 33.93964 | -118.38244 | 127 ft | 60 kts | 263° |
| 2026-05-04 03:32 | 33.93881 | -118.39049 | 127 ft | 132 kts | 263° |
| 2026-05-04 03:33 | 33.93741 | -118.40410 | 132 ft | 192 kts | 263° |
| 2026-05-04 03:33 | 33.93570 | -118.42076 | 516 ft | 206 kts | 261° |
| 2026-05-04 03:33 | 33.93373 | -118.43758 | 1405 ft | 201 kts | 262° |
| 2026-05-04 03:33 | 33.93189 | -118.45452 | 2035 ft | 207 kts | 263° |
| 2026-05-04 03:34 | 33.93014 | -118.47226 | 2333 ft | 219 kts | 263° |
| 2026-05-04 03:34 | 33.92848 | -118.49071 | 2811 ft | 222 kts | 264° |
| 2026-05-04 03:34 | 33.92696 | -118.50937 | 3266 ft | 227 kts | 264° |
| 2026-05-04 03:34 | 33.92545 | -118.52877 | 3574 ft | 239 kts | 265° |
| 2026-05-04 03:35 | 33.92400 | -118.54958 | 3810 ft | 253 kts | 265° |
| 2026-05-04 03:35 | 33.92243 | -118.57061 | 4403 ft | 256 kts | 264° |
| 2026-05-04 03:35 | 33.92073 | -118.59197 | 4990 ft | 257 kts | 264° |
| 2026-05-04 03:35 | 33.91897 | -118.61343 | 5620 ft | 256 kts | 264° |
| 2026-05-04 03:36 | 33.91743 | -118.63483 | 6245 ft | 255 kts | 268° |
| 2026-05-04 03:36 | 33.91713 | -118.65658 | 6605 ft | 266 kts | 270° |
| 2026-05-04 03:36 | 33.91721 | -118.67888 | 7128 ft | 267 kts | 270° |
| 2026-05-04 03:36 | 33.91729 | -118.70148 | 7627 ft | 271 kts | 269° |
| 2026-05-04 03:37 | 33.91733 | -118.72436 | 8117 ft | 275 kts | 269° |
| 2026-05-04 03:37 | 33.91730 | -118.74731 | 8566 ft | 281 kts | 269° |
| 2026-05-04 03:37 | 33.91723 | -118.77114 | 9078 ft | 285 kts | 268° |
| 2026-05-04 03:37 | 33.91713 | -118.79510 | 9685 ft | 287 kts | 268° |
| 2026-05-04 03:38 | 33.91702 | -118.81921 | 10244 ft | 290 kts | 268° |
| 2026-05-04 03:38 | 33.91702 | -118.84413 | 10423 ft | 307 kts | 269° |
| 2026-05-04 03:38 | 33.91775 | -118.87064 | 10581 ft | 325 kts | 270° |
| 2026-05-04 03:38 | 33.91873 | -118.89860 | 10723 ft | 344 kts | 270° |
| 2026-05-04 03:39 | 33.91971 | -118.92757 | 11021 ft | 356 kts | 270° |
| 2026-05-04 03:39 | 33.92066 | -118.95790 | 11492 ft | 364 kts | 270° |
| 2026-05-04 03:39 | 33.92157 | -118.98859 | 12077 ft | 368 kts | 270° |
| 2026-05-04 03:39 | 33.92073 | -119.01927 | 12615 ft | 368 kts | 257° |
| 2026-05-04 03:40 | 33.91206 | -119.04806 | 13133 ft | 366 kts | 243° |
| 2026-05-04 03:40 | 33.90121 | -119.07603 | 13696 ft | 371 kts | 244° |
| 2026-05-04 03:40 | 33.89060 | -119.10446 | 14336 ft | 372 kts | 245° |
| 2026-05-04 03:40 | 33.88015 | -119.13293 | 15104 ft | 369 kts | 245° |
| 2026-05-04 03:41 | 33.87000 | -119.16074 | 15834 ft | 367 kts | 245° |
| 2026-05-04 03:41 | 33.85972 | -119.18896 | 16508 ft | 368 kts | 246° |
| 2026-05-04 03:41 | 33.84945 | -119.21714 | 17149 ft | 368 kts | 246° |
| 2026-05-04 03:41 | 33.83915 | -119.24541 | 17807 ft | 368 kts | 246° |
| 2026-05-04 03:42 | 33.82883 | -119.27370 | 18456 ft | 368 kts | 246° |
| 2026-05-04 03:42 | 33.81852 | -119.30190 | 18990 ft | 369 kts | 246° |
| 2026-05-04 03:42 | 33.80800 | -119.33003 | 19501 ft | 368 kts | 243° |
| 2026-05-04 03:42 | 33.79332 | -119.35555 | 19846 ft | 376 kts | 229° |
| 2026-05-04 03:43 | 33.77353 | -119.37648 | 20315 ft | 379 kts | 222° |
| 2026-05-04 03:43 | 33.75266 | -119.39595 | 20826 ft | 380 kts | 221° |
| 2026-05-04 03:43 | 33.73160 | -119.41533 | 21322 ft | 382 kts | 221° |
| 2026-05-04 03:43 | 33.71074 | -119.43450 | 21799 ft | 383 kts | 221° |
| 2026-05-04 03:44 | 33.68927 | -119.45431 | 22279 ft | 385 kts | 222° |
| 2026-05-04 03:44 | 33.66826 | -119.47380 | 22719 ft | 386 kts | 222° |
| 2026-05-04 03:44 | 33.64698 | -119.49359 | 23177 ft | 388 kts | 222° |
| 2026-05-04 03:44 | 33.62562 | -119.51351 | 23616 ft | 390 kts | 222° |
| 2026-05-04 03:45 | 33.60416 | -119.53354 | 23979 ft | 391 kts | 222° |
| 2026-05-04 03:45 | 33.58266 | -119.55363 | 24364 ft | 392 kts | 223° |
| 2026-05-04 03:45 | 33.56113 | -119.57373 | 24752 ft | 393 kts | 223° |
| 2026-05-04 03:45 | 33.53956 | -119.59386 | 25131 ft | 394 kts | 223° |
| 2026-05-04 03:46 | 33.51791 | -119.61406 | 25488 ft | 395 kts | 223° |
| 2026-05-04 03:46 | 33.49616 | -119.63434 | 25837 ft | 396 kts | 223° |
| 2026-05-04 03:46 | 33.47439 | -119.65462 | 26183 ft | 397 kts | 223° |
| 2026-05-04 03:46 | 33.45254 | -119.67497 | 26545 ft | 398 kts | 223° |
| 2026-05-04 03:47 | 33.43065 | -119.69534 | 26885 ft | 399 kts | 223° |
| 2026-05-04 03:47 | 33.40868 | -119.71577 | 27206 ft | 400 kts | 223° |
| 2026-05-04 03:47 | 33.38692 | -119.73599 | 27532 ft | 401 kts | 223° |
| 2026-05-04 03:47 | 33.36479 | -119.75654 | 27853 ft | 402 kts | 223° |
| 2026-05-04 03:48 | 33.34269 | -119.77705 | 28158 ft | 403 kts | 224° |
| 2026-05-04 03:48 | 33.32048 | -119.79764 | 28452 ft | 404 kts | 224° |
| 2026-05-04 03:48 | 33.29823 | -119.81826 | 28736 ft | 405 kts | 224° |
| 2026-05-04 03:48 | 33.27590 | -119.83895 | 28985 ft | 406 kts | 224° |
| 2026-05-04 03:49 | 33.25355 | -119.85963 | 29252 ft | 407 kts | 224° |
| 2026-05-04 03:49 | 33.23112 | -119.88038 | 29495 ft | 408 kts | 224° |
| 2026-05-04 03:49 | 33.20862 | -119.90117 | 29730 ft | 409 kts | 224° |
| 2026-05-04 03:49 | 33.18612 | -119.92195 | 29935 ft | 410 kts | 224° |
| 2026-05-04 03:50 | 33.16347 | -119.94288 | 29987 ft | 413 kts | 224° |
| 2026-05-04 03:50 | 33.11815 | -119.98465 | 30037 ft | 410 kts | 224° |
| 2026-05-04 03:51 | 33.07340 | -120.02583 | 30048 ft | 407 kts | 224° |
| 2026-05-04 03:51 | 33.02858 | -120.06705 | 30052 ft | 406 kts | 224° |
| 2026-05-04 03:52 | 32.98388 | -120.10811 | 30056 ft | 406 kts | 224° |
| 2026-05-04 03:52 | 32.93907 | -120.14923 | 30055 ft | 406 kts | 224° |
| 2026-05-04 03:53 | 32.89416 | -120.19038 | 30054 ft | 407 kts | 224° |
| 2026-05-04 03:53 | 32.84951 | -120.23124 | 30055 ft | 408 kts | 224° |
| 2026-05-04 03:54 | 32.80444 | -120.27242 | 30053 ft | 408 kts | 224° |
| 2026-05-04 03:54 | 32.75931 | -120.31360 | 30054 ft | 408 kts | 224° |
| 2026-05-04 03:55 | 32.71426 | -120.35465 | 30053 ft | 408 kts | 224° |
| 2026-05-04 03:55 | 32.66928 | -120.39560 | 30057 ft | 407 kts | 224° |
| 2026-05-04 03:56 | 32.62438 | -120.43643 | 30049 ft | 406 kts | 224° |
| 2026-05-04 03:56 | 32.57980 | -120.47690 | 30056 ft | 405 kts | 224° |
| 2026-05-04 03:57 | 32.53506 | -120.51748 | 30054 ft | 404 kts | 224° |
| 2026-05-04 03:57 | 32.49039 | -120.55798 | 30051 ft | 404 kts | 224° |
| 2026-05-04 03:58 | 32.42349 | -120.61856 | 30053 ft | 403 kts | 224° |
| 2026-05-04 03:58 | 32.37893 | -120.65884 | 30058 ft | 403 kts | 224° |
| 2026-05-04 03:59 | 32.33432 | -120.69911 | 30056 ft | 403 kts | 224° |
| 2026-05-04 03:59 | 32.28979 | -120.73926 | 30063 ft | 403 kts | 224° |
| 2026-05-04 04:00 | 32.24520 | -120.77943 | 30062 ft | 403 kts | 224° |
| 2026-05-04 04:00 | 32.20090 | -120.81926 | 30056 ft | 402 kts | 224° |